Time;durP1;ratioP1;P1;durP2;ratioP2;P2;SDS_P1;SDS_P2;PMS_P1;PMS_P2;Temp;Humidity;BMP_temperature;BMP_pressure;BME280_temperature;BME280_humidity;BME280_pressure;Samples;Min_cycle;Max_cycle;Signal;HPM_P1;HPM_P2
2023/06/14 00:00:27;;;;;;;10.70;6.90;;;26.40;57.20;;;;;;7385533;19;19907;-77
2023/06/14 00:02:55;;;;;;;15.80;8.55;;;26.40;57.20;;;;;;7385286;19;20268;-77
2023/06/14 00:05:30;;;;;;;12.50;7.68;;;26.40;57.20;;;;;;7408354;19;20371;-77
2023/06/14 00:08:00;;;;;;;15.43;7.60;;;26.30;57.40;;;;;;7385725;19;20023;-77
2023/06/14 00:10:31;;;;;;;12.27;7.80;;;26.30;57.50;;;;;;7386280;19;20011;-77
2023/06/14 00:13:00;;;;;;;14.82;7.53;;;26.30;57.70;;;;;;7386332;19;20240;-78
2023/06/14 00:15:30;;;;;;;15.07;8.27;;;26.20;57.70;;;;;;7388093;19;20110;-77
2023/06/14 00:18:00;;;;;;;15.07;7.27;;;26.30;57.80;;;;;;7388645;19;20016;-77
2023/06/14 00:20:35;;;;;;;14.15;8.57;;;26.20;57.90;;;;;;7409573;19;20029;-77
2023/06/14 00:23:06;;;;;;;13.13;7.72;;;26.20;57.90;;;;;;7385643;19;20003;-77
2023/06/14 00:25:35;;;;;;;;;;;26.20;58.00;;;;;;7387333;19;20358;-77
2023/06/14 00:28:03;;;;;;;14.00;8.95;;;26.20;58.00;;;;;;7387719;19;19940;-77
2023/06/14 00:30:32;;;;;;;15.77;8.10;;;26.10;58.00;;;;;;7385612;19;20263;-77
2023/06/14 00:33:01;;;;;;;16.10;7.75;;;26.00;58.20;;;;;;7389755;19;20011;-77
2023/06/14 00:35:32;;;;;;;12.50;7.53;;;26.00;58.30;;;;;;7406376;19;20014;-77
2023/06/14 00:38:01;;;;;;;17.85;8.20;;;25.90;58.40;;;;;;7386578;19;20006;-78
2023/06/14 00:40:32;;;;;;;14.25;8.20;;;25.80;58.70;;;;;;7385734;19;20301;-77
2023/06/14 00:43:01;;;;;;;13.40;8.30;;;25.80;59.00;;;;;;7385235;19;20246;-77
2023/06/14 00:45:31;;;;;;;12.60;7.97;;;25.70;59.10;;;;;;7385044;19;20013;-77
2023/06/14 00:48:00;;;;;;;12.32;8.57;;;25.70;59.10;;;;;;7386025;19;19999;-77
2023/06/14 00:50:33;;;;;;;16.42;8.05;;;25.70;59.20;;;;;;7405645;19;20200;-77
2023/06/14 00:53:02;;;;;;;13.40;8.85;;;25.60;59.30;;;;;;7384416;19;20377;-77
2023/06/14 00:55:32;;;;;;;15.52;8.52;;;25.60;59.30;;;;;;7385358;19;19999;-77
2023/06/14 00:58:02;;;;;;;11.77;8.18;;;25.60;59.50;;;;;;7385633;19;20078;-78
2023/06/14 01:00:31;;;;;;;21.25;8.55;;;25.50;59.70;;;;;;7391457;19;20357;-78
2023/06/14 01:03:01;;;;;;;12.68;7.72;;;25.50;59.60;;;;;;7393972;19;20041;-79
2023/06/14 01:05:33;;;;;;;15.25;7.63;;;25.50;59.80;;;;;;7407071;19;20078;-77
2023/06/14 01:08:16;;;;;;;12.48;7.97;;;25.40;59.80;;;;;;7384288;19;20014;-77
2023/06/14 01:10:55;;;;;;;13.90;7.85;;;25.40;59.90;;;;;;7382738;19;20006;-77
2023/06/14 01:13:28;;;;;;;14.45;8.55;;;25.40;60.00;;;;;;7383249;19;20027;-77
2023/06/14 01:15:58;;;;;;;16.35;9.13;;;25.40;60.00;;;;;;7383955;19;20014;-77
2023/06/14 01:18:26;;;;;;;13.80;8.65;;;25.40;60.20;;;;;;7384805;19;20010;-77
2023/06/14 01:20:58;;;;;;;13.90;8.68;;;25.40;60.30;;;;;;7384181;19;20011;-76
2023/06/14 01:23:32;;;;;;;19.48;8.95;;;25.40;60.40;;;;;;7403744;19;20015;-77
2023/06/14 01:26:03;;;;;;;14.13;8.60;;;25.30;60.40;;;;;;7383521;19;20010;-77
2023/06/14 01:28:34;;;;;;;15.65;8.77;;;25.30;60.70;;;;;;7384208;19;20014;-77
2023/06/14 01:31:05;;;;;;;13.35;8.40;;;25.30;60.90;;;;;;7385907;19;20277;-77
2023/06/14 01:33:39;;;;;;;15.73;9.07;;;25.20;60.80;;;;;;7391874;19;20005;-76
2023/06/14 01:36:09;;;;;;;14.75;8.73;;;25.20;60.80;;;;;;7397333;19;20021;-77
2023/06/14 01:38:44;;;;;;;21.13;9.02;;;25.20;60.90;;;;;;7409319;19;20007;-77
2023/06/14 01:41:14;;;;;;;13.00;8.30;;;25.20;60.90;;;;;;7385067;19;20014;-78
2023/06/14 01:43:44;;;;;;;13.65;8.25;;;25.20;61.00;;;;;;7383477;19;20031;-77
2023/06/14 01:46:13;;;;;;;12.85;8.65;;;25.20;61.30;;;;;;7383103;19;20041;-77
2023/06/14 01:48:42;;;;;;;19.27;9.18;;;25.20;61.30;;;;;;7382184;19;20003;-77
2023/06/14 01:51:11;;;;;;;16.65;8.38;;;25.10;61.40;;;;;;7383441;19;20014;-77
2023/06/14 01:53:42;;;;;;;15.27;9.63;;;25.10;61.40;;;;;;7391463;19;20007;-76
2023/06/14 01:56:10;;;;;;;;;;;25.10;61.60;;;;;;7404981;19;20022;-76
2023/06/14 01:58:39;;;;;;;13.27;9.02;;;25.10;61.60;;;;;;7382423;19;19918;-77
2023/06/14 02:01:08;;;;;;;16.23;9.20;;;25.00;61.60;;;;;;7382034;19;20377;-76
2023/06/14 02:03:38;;;;;;;15.43;9.75;;;24.90;61.80;;;;;;7381159;19;20309;-77
2023/06/14 02:06:07;;;;;;;17.10;9.40;;;24.80;62.00;;;;;;7383524;19;20066;-76
2023/06/14 02:08:36;;;;;;;15.27;9.65;;;24.80;62.10;;;;;;7401879;19;20031;-77
2023/06/14 02:11:07;;;;;;;14.98;9.07;;;24.80;62.30;;;;;;7381567;19;20211;-77
2023/06/14 02:13:36;;;;;;;14.15;8.95;;;24.70;62.40;;;;;;7381435;19;20349;-77
2023/06/14 02:16:05;;;;;;;17.88;9.65;;;24.70;62.60;;;;;;7381876;19;20006;-77
2023/06/14 02:18:34;;;;;;;16.25;9.77;;;24.70;62.60;;;;;;7381515;19;20107;-76
2023/06/14 02:21:03;;;;;;;19.70;9.65;;;24.60;63.00;;;;;;7381706;19;20003;-76
2023/06/14 02:23:32;;;;;;;18.40;9.65;;;24.60;62.80;;;;;;7402538;19;20247;-76
2023/06/14 02:26:02;;;;;;;18.23;9.70;;;24.60;62.90;;;;;;7382656;19;20066;-77
2023/06/14 02:28:35;;;;;;;15.15;10.15;;;24.60;63.20;;;;;;7382127;19;20018;-77
2023/06/14 02:31:04;;;;;;;14.48;10.32;;;24.60;63.30;;;;;;7382516;19;20014;-77
2023/06/14 02:33:32;;;;;;;22.52;10.35;;;24.50;63.20;;;;;;7382587;19;20010;-76
2023/06/14 02:36:02;;;;;;;22.52;9.50;;;24.50;63.50;;;;;;7380890;19;20019;-76
2023/06/14 02:38:31;;;;;;;16.38;9.93;;;24.50;63.30;;;;;;7402553;19;20014;-76
2023/06/14 02:41:01;;;;;;;18.13;10.02;;;24.50;63.80;;;;;;7380485;19;20003;-76
2023/06/14 02:43:34;;;;;;;14.68;9.52;;;24.50;63.30;;;;;;7379719;19;20018;-76
2023/06/14 02:46:03;;;;;;;15.73;9.30;;;24.50;63.60;;;;;;7382104;19;20091;-76
2023/06/14 02:48:33;;;;;;;12.90;8.98;;;24.40;63.50;;;;;;7383273;19;20030;-77
2023/06/14 02:51:01;;;;;;;15.65;10.00;;;24.40;63.60;;;;;;7381060;19;20026;-77
2023/06/14 02:53:30;;;;;;;18.02;10.13;;;24.40;63.80;;;;;;7402670;19;20023;-76
2023/06/14 02:55:59;;;;;;;16.58;9.75;;;24.30;63.80;;;;;;7379949;19;20026;-76
2023/06/14 02:58:28;;;;;;;17.48;9.70;;;24.30;63.90;;;;;;7380254;19;20007;-76
2023/06/14 03:01:05;;;;;;;14.30;9.70;;;24.30;64.00;;;;;;7379860;19;20044;-77
2023/06/14 03:03:34;;;;;;;14.10;9.07;;;24.30;64.10;;;;;;7381082;19;20086;-76
2023/06/14 03:06:04;;;;;;;16.27;9.60;;;24.30;64.20;;;;;;7388238;19;20010;-77
2023/06/14 03:08:38;;;;;;;24.25;9.85;;;24.30;64.10;;;;;;7407869;19;20034;-76
2023/06/14 03:11:07;;;;;;;17.48;9.82;;;24.20;64.20;;;;;;7388881;19;20002;-77
2023/06/14 03:13:37;;;;;;;13.77;10.02;;;24.20;64.50;;;;;;7389568;19;20152;-76
2023/06/14 03:16:08;;;;;;;16.80;9.82;;;24.20;64.70;;;;;;7390682;19;20023;-76
2023/06/14 03:18:38;;;;;;;18.02;9.85;;;24.10;64.80;;;;;;7393357;19;20003;-76
2023/06/14 03:21:08;;;;;;;15.82;9.45;;;24.10;64.90;;;;;;7392296;19;20010;-76
2023/06/14 03:23:37;;;;;;;16.23;9.82;;;24.10;65.00;;;;;;7408497;19;20007;-76
2023/06/14 03:26:06;;;;;;;16.10;9.98;;;24.00;64.70;;;;;;7388919;19;19999;-76
2023/06/14 03:28:34;;;;;;;18.98;9.85;;;24.10;64.90;;;;;;7388144;19;20020;-76
2023/06/14 03:31:08;;;;;;;14.30;9.43;;;24.00;65.00;;;;;;7388610;19;20019;-77
2023/06/14 03:33:37;;;;;;;16.80;9.73;;;24.00;64.90;;;;;;7387984;19;20007;-77
2023/06/14 03:36:06;;;;;;;19.85;10.07;;;24.00;65.80;;;;;;7385580;19;20243;-77
2023/06/14 03:38:35;;;;;;;13.82;9.88;;;24.00;65.30;;;;;;7407717;19;20013;-77
2023/06/14 03:41:04;;;;;;;20.48;10.25;;;23.90;65.20;;;;;;7387930;19;20366;-77
2023/06/14 03:43:33;;;;;;;15.32;9.57;;;23.90;65.30;;;;;;7391605;19;20266;-77
2023/06/14 03:46:02;;;;;;;13.07;9.30;;;23.90;65.40;;;;;;7397162;19;20007;-77
2023/06/14 03:48:33;;;;;;;16.20;9.90;;;23.90;65.70;;;;;;7389669;19;20022;-74
2023/06/14 03:51:02;;;;;;;;;;;23.90;65.60;;;;;;7387742;19;20020;-76
2023/06/14 03:53:30;;;;;;;19.13;9.52;;;23.90;65.80;;;;;;7407135;19;19928;-76
2023/06/14 03:56:00;;;;;;;19.75;10.15;;;23.80;65.80;;;;;;7386226;19;20003;-77
2023/06/14 03:58:29;;;;;;;16.25;9.93;;;23.80;66.40;;;;;;7385361;19;20014;-76
2023/06/14 04:00:59;;;;;;;18.95;9.57;;;23.80;65.70;;;;;;7386643;19;20007;-76
2023/06/14 04:03:29;;;;;;;15.32;10.02;;;23.70;65.90;;;;;;7385859;19;20400;-76
2023/06/14 04:06:00;;;;;;;19.70;10.57;;;23.80;65.80;;;;;;7384321;19;20030;-76
2023/06/14 04:08:29;;;;;;;;;;;23.70;65.70;;;;;;7408820;19;20019;-76
2023/06/14 04:10:57;;;;;;;17.73;10.27;;;23.70;66.30;;;;;;7385067;19;19911;-77
2023/06/14 04:13:26;;;;;;;16.23;10.30;;;23.70;66.30;;;;;;7385264;19;20010;-77
2023/06/14 04:15:56;;;;;;;21.70;9.93;;;23.60;66.30;;;;;;7385092;19;20086;-76
2023/06/14 04:18:25;;;;;;;18.77;9.93;;;23.70;66.10;;;;;;7384464;19;20006;-76
2023/06/14 04:20:56;;;;;;;18.73;10.18;;;23.60;66.20;;;;;;7385969;19;20010;-76
2023/06/14 04:23:28;;;;;;;22.70;10.50;;;23.60;66.50;;;;;;7407160;19;20020;-76
2023/06/14 04:26:01;;;;;;;23.83;10.02;;;23.60;66.40;;;;;;7384546;19;20007;-77
2023/06/14 04:28:30;;;;;;;20.92;9.05;;;23.60;66.40;;;;;;7384251;19;20003;-76
2023/06/14 04:31:01;;;;;;;21.58;10.25;;;23.60;66.40;;;;;;7385373;19;20011;-77
2023/06/14 04:33:31;;;;;;;;;;;23.60;66.70;;;;;;7385724;19;19999;-76
2023/06/14 04:36:00;;;;;;;27.98;10.82;;;23.60;67.00;;;;;;7385544;19;19906;-76
2023/06/14 04:38:34;;;;;;;21.88;10.43;;;23.60;67.10;;;;;;7405184;19;20028;-76
2023/06/14 04:41:03;;;;;;;21.05;10.73;;;23.60;66.90;;;;;;7384316;19;20003;-76
2023/06/14 04:43:37;;;;;;;20.63;10.00;;;23.60;67.20;;;;;;7385436;19;20017;-76
2023/06/14 04:46:06;;;;;;;18.10;10.25;;;23.50;67.30;;;;;;7387121;19;20328;-76
2023/06/14 04:48:34;;;;;;;14.13;9.40;;;23.50;67.50;;;;;;7385869;19;20263;-76
2023/06/14 04:51:03;;;;;;;16.05;9.65;;;23.60;67.60;;;;;;7383136;19;20022;-76
2023/06/14 04:53:35;;;;;;;15.27;9.98;;;23.60;67.50;;;;;;7406180;19;20246;-76
2023/06/14 04:56:03;;;;;;;;;;;23.70;67.40;;;;;;7385084;19;20026;-76
2023/06/14 04:58:32;;;;;;;16.35;10.20;;;23.70;67.50;;;;;;7383265;19;19906;-76
2023/06/14 05:01:02;;;;;;;24.15;10.55;;;23.70;67.50;;;;;;7386789;19;20018;-76
2023/06/14 05:03:31;;;;;;;16.00;9.45;;;23.60;67.80;;;;;;7387134;19;20007;-76
2023/06/14 05:06:00;;;;;;;16.67;10.70;;;23.60;68.10;;;;;;7386549;19;20238;-76
2023/06/14 05:08:29;;;;;;;19.13;10.27;;;23.60;68.20;;;;;;7404426;19;20375;-76
2023/06/14 05:11:02;;;;;;;22.27;10.43;;;23.70;68.30;;;;;;7383950;19;20078;-76
2023/06/14 05:13:32;;;;;;;20.45;9.73;;;23.70;68.40;;;;;;7383148;19;20010;-76
2023/06/14 05:16:02;;;;;;;16.67;10.45;;;23.70;68.50;;;;;;7386012;19;20031;-76
2023/06/14 05:18:30;;;;;;;21.23;10.52;;;23.70;68.60;;;;;;7384613;19;20013;-77
2023/06/14 05:20:59;;;;;;;14.55;10.27;;;23.80;68.80;;;;;;7384617;19;20024;-77
2023/06/14 05:23:30;;;;;;;17.70;9.80;;;23.80;68.70;;;;;;7405735;19;20034;-76
2023/06/14 05:26:02;;;;;;;14.30;9.27;;;23.90;68.40;;;;;;7383768;19;20048;-77
2023/06/14 05:28:31;;;;;;;24.02;10.10;;;23.90;68.50;;;;;;7381483;19;20017;-77
2023/06/14 05:31:00;;;;;;;15.50;9.48;;;23.90;68.60;;;;;;7383766;19;20362;-76
2023/06/14 05:33:29;;;;;;;20.58;9.32;;;24.00;68.70;;;;;;7384483;19;20024;-77
2023/06/14 05:35:58;;;;;;;20.75;10.18;;;24.00;68.80;;;;;;7384702;19;20006;-76
2023/06/14 05:38:27;;;;;;;18.30;9.50;;;24.00;69.00;;;;;;7405957;19;20252;-77
2023/06/14 05:40:56;;;;;;;17.63;10.13;;;24.10;69.10;;;;;;7384427;19;20013;-76
2023/06/14 05:43:27;;;;;;;24.25;9.38;;;24.10;69.20;;;;;;7383912;19;20009;-76
2023/06/14 05:45:55;;;;;;;;;;;24.20;69.30;;;;;;7384309;19;20027;-77
2023/06/14 05:48:24;;;;;;;24.13;10.25;;;24.30;69.10;;;;;;7385030;19;19911;-76
2023/06/14 05:50:53;;;;;;;19.90;9.52;;;24.30;68.80;;;;;;7383679;19;20016;-76
2023/06/14 05:53:21;;;;;;;16.30;10.13;;;24.30;68.90;;;;;;7408302;19;20104;-76
2023/06/14 05:55:51;;;;;;;16.40;9.52;;;24.30;68.90;;;;;;7390821;19;20019;-76
2023/06/14 05:58:20;;;;;;;23.92;9.55;;;24.30;69.00;;;;;;7393061;19;20026;-76
2023/06/14 06:00:53;;;;;;;19.48;9.63;;;24.40;69.40;;;;;;7387037;19;20006;-76
2023/06/14 06:03:22;;;;;;;18.15;8.93;;;24.40;69.50;;;;;;7384371;19;20007;-76
2023/06/14 06:05:51;;;;;;;17.27;9.52;;;24.50;69.40;;;;;;7382653;19;20011;-77
2023/06/14 06:08:20;;;;;;;32.05;9.57;;;24.50;69.20;;;;;;7406465;19;20011;-76
2023/06/14 06:10:49;;;;;;;20.23;9.48;;;24.60;69.20;;;;;;7386239;19;20002;-76
2023/06/14 06:13:18;;;;;;;25.80;10.15;;;24.60;69.40;;;;;;7385116;19;20003;-76
2023/06/14 06:15:49;;;;;;;18.40;9.15;;;24.70;69.50;;;;;;7382398;19;20011;-76
2023/06/14 06:18:20;;;;;;;15.35;8.95;;;24.80;69.70;;;;;;7382187;19;20240;-76
2023/06/14 06:20:49;;;;;;;;;;;24.90;69.70;;;;;;7382647;19;20023;-76
2023/06/14 06:23:18;;;;;;;13.52;8.48;;;25.00;69.60;;;;;;7403075;19;19918;-76
2023/06/14 06:25:47;;;;;;;17.08;9.00;;;25.10;69.50;;;;;;7379642;19;20251;-76
2023/06/14 06:28:15;;;;;;;22.08;9.27;;;25.10;69.70;;;;;;7381501;19;20062;-76
2023/06/14 06:30:44;;;;;;;17.63;9.05;;;25.10;69.50;;;;;;7381544;19;20006;-76
2023/06/14 06:33:14;;;;;;;16.70;9.18;;;25.20;69.10;;;;;;7381810;19;20424;-76
2023/06/14 06:35:45;;;;;;;21.33;9.50;;;25.30;68.90;;;;;;7382005;19;20006;-76
2023/06/14 06:38:14;;;;;;;17.55;9.52;;;25.40;68.80;;;;;;7402529;19;20039;-77
2023/06/14 06:40:42;;;;;;;14.77;8.75;;;25.40;68.60;;;;;;7381595;19;20030;-77
2023/06/14 06:43:13;;;;;;;18.13;9.48;;;25.40;68.60;;;;;;7381044;19;20024;-77
2023/06/14 06:45:42;;;;;;;21.83;9.02;;;25.50;67.60;;;;;;7380740;19;20376;-76
2023/06/14 06:48:11;;;;;;;16.48;8.98;;;25.60;67.30;;;;;;7382060;19;20007;-76
2023/06/14 06:50:39;;;;;;;14.52;8.48;;;25.60;67.00;;;;;;7395722;19;20058;-76
2023/06/14 06:53:11;;;;;;;17.35;8.27;;;25.70;66.50;;;;;;7406629;19;20043;-77
2023/06/14 06:55:40;;;;;;;;;;;25.70;65.40;;;;;;7400441;19;20027;-77
2023/06/14 06:58:09;;;;;;;18.48;7.90;;;25.80;64.40;;;;;;7401941;19;19915;-76
2023/06/14 07:00:40;;;;;;;16.08;7.60;;;25.90;63.60;;;;;;7384855;19;20011;-77
2023/06/14 07:03:09;;;;;;;19.52;7.78;;;25.90;63.10;;;;;;7384884;19;20366;-77
2023/06/14 07:05:38;;;;;;;17.73;7.85;;;25.90;62.50;;;;;;7402217;19;20002;-76
2023/06/14 07:08:09;;;;;;;18.20;8.30;;;26.00;61.40;;;;;;7384508;19;19999;-76
2023/06/14 07:10:38;;;;;;;13.52;7.28;;;26.10;61.30;;;;;;7380352;19;20010;-77
2023/06/14 07:13:14;;;;;;;16.38;7.25;;;26.10;60.20;;;;;;7380000;19;20016;-77
2023/06/14 07:15:43;;;;;;;20.08;7.72;;;26.10;59.70;;;;;;7382659;19;20019;-75
2023/06/14 07:18:24;;;;;;;19.42;7.80;;;26.20;59.00;;;;;;7389288;19;20022;-82
2023/06/14 07:20:58;;;;;;;14.60;7.00;;;26.20;58.90;;;;;;7393732;19;20034;-80
2023/06/14 07:23:38;;;;;;;14.60;6.85;;;26.30;58.40;;;;;;7411260;19;20003;-81
2023/06/14 07:26:07;;;;;;;13.07;8.13;;;26.30;57.70;;;;;;7385823;19;20031;-78
2023/06/14 07:28:35;;;;;;;172.63;105.75;;;26.30;57.60;;;;;;7385165;19;20390;-79
2023/06/14 07:31:07;;;;;;;29.08;11.77;;;26.40;57.40;;;;;;7388942;19;20044;-81
2023/06/14 07:33:36;;;;;;;18.30;8.30;;;26.40;57.40;;;;;;7382878;19;20030;-78
2023/06/14 07:36:08;;;;;;;15.55;8.18;;;26.40;56.60;;;;;;7385093;19;20006;-79
2023/06/14 07:38:42;;;;;;;10.15;6.82;;;26.50;55.30;;;;;;7406879;19;20013;-77
2023/06/14 07:41:23;;;;;;;17.77;7.97;;;26.50;54.90;;;;;;7385263;19;20003;-82
2023/06/14 07:43:55;;;;;;;191.23;117.45;;;26.50;55.20;;;;;;7388715;19;20007;-79
2023/06/14 07:46:23;;;;;;;279.73;170.73;;;26.60;55.40;;;;;;7384301;19;20263;-73
2023/06/14 07:48:52;;;;;;;36.15;18.63;;;26.60;55.40;;;;;;7379135;19;20074;-75
2023/06/14 07:51:21;;;;;;;14.50;7.03;;;26.60;55.40;;;;;;7381224;19;20002;-75
2023/06/14 07:53:52;;;;;;;13.30;7.30;;;26.70;55.30;;;;;;7387465;19;20018;-74
2023/06/14 07:56:21;;;;;;;13.23;6.85;;;26.70;55.20;;;;;;7407784;19;20374;-74
2023/06/14 07:58:50;;;;;;;14.48;6.80;;;26.70;54.30;;;;;;7384837;19;20066;-74
2023/06/14 08:01:20;;;;;;;17.77;7.07;;;26.70;53.90;;;;;;7385758;19;20006;-75
2023/06/14 08:03:48;;;;;;;13.80;6.53;;;26.70;53.80;;;;;;7387429;19;20007;-75
2023/06/14 08:06:18;;;;;;;16.73;7.28;;;26.80;53.80;;;;;;7394985;19;20010;-74
2023/06/14 08:08:46;;;;;;;10.60;6.25;;;26.80;53.70;;;;;;7396688;19;20026;-74
2023/06/14 08:11:18;;;;;;;11.15;6.25;;;26.80;53.00;;;;;;7412450;19;20010;-75
2023/06/14 08:13:46;;;;;;;20.67;7.38;;;26.80;53.80;;;;;;7386600;19;20130;-76
2023/06/14 08:16:15;;;;;;;15.93;6.63;;;26.90;53.20;;;;;;7385856;19;20023;-75
2023/06/14 08:18:44;;;;;;;19.60;6.57;;;26.90;52.70;;;;;;7385649;19;20016;-75
2023/06/14 08:21:14;;;;;;;10.98;5.95;;;26.90;53.00;;;;;;7385834;19;20002;-75
2023/06/14 08:23:43;;;;;;;12.13;5.63;;;27.00;53.20;;;;;;7388028;19;20013;-76
2023/06/14 08:26:12;;;;;;;16.77;6.28;;;27.00;52.10;;;;;;7408110;19;20007;-75
2023/06/14 08:28:43;;;;;;;9.90;5.80;;;27.00;51.40;;;;;;7388166;19;20003;-75
2023/06/14 08:31:12;;;;;;;10.38;5.55;;;27.00;50.00;;;;;;7386507;19;20003;-76
2023/06/14 08:33:43;;;;;;;9.57;5.70;;;27.10;49.90;;;;;;7385256;19;20392;-76
2023/06/14 08:36:12;;;;;;;9.98;5.85;;;27.10;50.10;;;;;;7385329;19;20326;-76
2023/06/14 08:38:41;;;;;;;13.32;6.22;;;27.10;50.20;;;;;;7382375;19;20031;-75
2023/06/14 08:41:14;;;;;;;12.65;6.30;;;27.10;49.70;;;;;;7406085;19;20031;-74
2023/06/14 08:43:45;;;;;;;7.80;5.80;;;27.10;49.40;;;;;;7383805;19;20358;-73
2023/06/14 08:46:19;;;;;;;8.63;5.75;;;27.10;49.60;;;;;;7383332;19;20006;-78
2023/06/14 08:48:49;;;;;;;11.73;5.50;;;27.10;49.30;;;;;;7384743;19;20024;-76
2023/06/14 08:51:21;;;;;;;12.00;5.53;;;27.20;49.40;;;;;;7384838;19;20023;-74
2023/06/14 08:53:57;;;;;;;12.27;5.55;;;27.30;49.70;;;;;;7384860;19;20011;-74
2023/06/14 08:56:28;;;;;;;9.52;5.18;;;27.30;49.20;;;;;;7403765;19;20010;-75
2023/06/14 08:59:02;;;;;;;17.20;5.72;;;27.30;49.20;;;;;;7383328;19;20026;-74
2023/06/14 09:01:31;;;;;;;13.77;6.47;;;27.30;48.70;;;;;;7383619;19;20013;-75
2023/06/14 09:04:00;;;;;;;15.32;5.70;;;27.40;49.00;;;;;;7383281;19;20003;-75
2023/06/14 09:06:29;;;;;;;11.88;5.80;;;27.40;48.80;;;;;;7383229;19;20283;-74
2023/06/14 09:08:59;;;;;;;11.05;6.03;;;27.40;49.00;;;;;;7383030;19;20007;-74
2023/06/14 09:11:28;;;;;;;20.30;6.10;;;27.40;49.00;;;;;;7406239;19;20337;-74
2023/06/14 09:13:59;;;;;;;16.77;5.85;;;27.40;48.70;;;;;;7384460;19;20010;-76
2023/06/14 09:16:28;;;;;;;10.25;5.93;;;27.40;48.80;;;;;;7388869;19;20011;-76
2023/06/14 09:18:57;;;;;;;10.38;5.38;;;27.50;48.70;;;;;;7388198;19;20007;-75
2023/06/14 09:21:26;;;;;;;16.00;5.70;;;27.50;48.50;;;;;;7388368;19;20024;-75
2023/06/14 09:23:55;;;;;;;10.35;5.55;;;27.50;47.60;;;;;;7385058;19;20010;-77
2023/06/14 09:26:24;;;;;;;16.42;6.30;;;27.50;46.50;;;;;;7405125;19;20027;-75
2023/06/14 09:28:53;;;;;;;11.90;6.00;;;27.50;46.80;;;;;;7384075;19;20007;-74
2023/06/14 09:31:31;;;;;;;14.00;5.32;;;27.50;46.80;;;;;;7389878;19;20024;-78
2023/06/14 09:34:00;;;;;;;9.48;4.90;;;27.50;47.10;;;;;;7386557;19;20030;-75
2023/06/14 09:36:29;;;;;;;10.07;5.38;;;27.60;47.00;;;;;;7383333;19;20019;-76
2023/06/14 09:39:00;;;;;;;6.80;4.88;;;27.50;46.50;;;;;;7384105;19;20017;-74
2023/06/14 09:41:39;;;;;;;13.23;5.60;;;27.60;46.00;;;;;;7405284;19;20009;-78
2023/06/14 09:44:09;;;;;;;7.03;5.28;;;27.60;45.50;;;;;;7383630;19;20010;-77
2023/06/14 09:46:43;;;;;;;8.15;5.25;;;27.70;45.40;;;;;;7381201;19;20006;-78
2023/06/14 09:49:14;;;;;;;9.50;5.35;;;27.70;45.20;;;;;;7385166;19;20118;-77
2023/06/14 09:51:48;;;;;;;9.13;5.03;;;27.70;44.80;;;;;;7381999;19;20114;-78
2023/06/14 09:54:19;;;;;;;11.73;5.40;;;27.70;44.50;;;;;;7383575;19;20028;-79
2023/06/14 09:56:49;;;;;;;8.57;5.38;;;27.80;45.10;;;;;;7384699;19;20011;-77
2023/06/14 09:59:27;;;;;;;7.82;5.15;;;27.80;44.70;;;;;;7404739;19;20010;-77
2023/06/14 10:02:03;;;;;;;10.23;5.35;;;27.80;44.90;;;;;;7381776;19;20030;-77
2023/06/14 10:04:34;;;;;;;12.30;5.60;;;27.90;44.20;;;;;;7382089;19;20010;-75
2023/06/14 10:07:03;;;;;;;;;;;28.00;45.00;;;;;;7382460;19;20003;-76
2023/06/14 10:09:32;;;;;;;7.10;4.90;;;28.10;44.60;;;;;;7382654;19;19915;-76
2023/06/14 10:12:01;;;;;;;8.30;4.95;;;28.10;44.60;;;;;;7385890;19;20019;-75
2023/06/14 10:14:31;;;;;;;10.88;5.65;;;28.10;44.60;;;;;;7412197;19;20002;-77
2023/06/14 10:17:09;;;;;;;11.80;5.32;;;28.10;44.10;;;;;;7388263;19;20009;-76
2023/06/14 10:19:52;;;;;;;10.93;5.70;;;28.10;44.60;;;;;;7384747;19;20006;-76
2023/06/14 10:22:28;;;;;;;17.27;5.40;;;28.20;44.10;;;;;;7384963;19;20055;-76
2023/06/14 10:24:59;;;;;;;90.55;55.28;;;28.20;43.90;;;;;;7400898;19;20027;-77
2023/06/14 10:27:30;;;;;;;38.72;19.42;;;28.20;43.50;;;;;;7399440;19;20043;-76
2023/06/14 10:30:07;;;;;;;10.95;6.15;;;28.30;43.70;;;;;;7387700;19;20091;-76
2023/06/14 10:33:15;;;;;;;20.33;6.13;;;28.30;42.60;;;;;;7403998;19;20014;-75
2023/06/14 10:35:44;;;;;;;11.30;5.95;;;28.40;42.80;;;;;;7278996;19;2004690;-76
2023/06/14 10:38:17;;;;;;;12.10;6.13;;;28.40;42.80;;;;;;7402908;19;20026;-76
2023/06/14 10:40:57;;;;;;;6.88;5.20;;;28.40;43.70;;;;;;7382380;19;20007;-76
2023/06/14 10:43:27;;;;;;;13.55;5.82;;;28.40;42.90;;;;;;7386179;19;20026;-77
2023/06/14 10:46:18;;;;;;;6.32;5.32;;;28.50;43.10;;;;;;7384589;19;20006;-78
2023/06/14 10:48:49;;;;;;;10.90;6.00;;;28.50;42.90;;;;;;7384051;19;20010;-78
2023/06/14 10:51:23;;;;;;;10.13;6.50;;;28.50;43.10;;;;;;7385258;19;20064;-78
2023/06/14 10:53:52;;;;;;;7.90;5.35;;;28.60;43.00;;;;;;7387890;19;20091;-77
2023/06/14 10:56:31;;;;;;;14.27;6.13;;;28.60;43.40;;;;;;7405352;19;20016;-76
2023/06/14 10:59:00;;;;;;;10.88;5.50;;;28.60;43.20;;;;;;7379138;19;20397;-76
2023/06/14 11:02:01;;;;;;;10.45;5.03;;;28.70;43.20;;;;;;7381223;19;20003;-76
2023/06/14 11:04:50;;;;;;;11.68;5.63;;;28.70;42.60;;;;;;7381337;19;20076;-76
2023/06/14 11:07:39;;;;;;;12.07;4.88;;;28.80;43.10;;;;;;7380440;19;20007;-76
2023/06/14 11:10:21;;;;;;;7.85;5.65;;;28.90;42.90;;;;;;7380046;19;20011;-77
2023/06/14 11:12:51;;;;;;;14.85;6.10;;;28.90;43.10;;;;;;7379873;19;20394;-77
2023/06/14 11:15:19;;;;;;;8.50;5.60;;;28.90;43.20;;;;;;7378820;19;20365;-77
2023/06/14 11:17:54;;;;;;;13.40;5.68;;;28.90;43.20;;;;;;7379782;19;20018;-77
2023/06/14 11:20:29;;;;;;;10.60;5.43;;;29.00;43.60;;;;;;7401591;19;20354;-76
2023/06/14 11:23:00;;;;;;;14.10;5.85;;;29.00;43.80;;;;;;7379458;19;20011;-77
2023/06/14 11:25:29;;;;;;;12.15;5.30;;;29.10;43.60;;;;;;7388957;19;20363;-76
2023/06/14 11:27:59;;;;;;;7.97;4.93;;;29.10;44.30;;;;;;7387300;19;20299;-80
2023/06/14 11:30:29;;;;;;;14.02;6.05;;;29.10;44.10;;;;;;7389779;19;20007;-74
2023/06/14 11:32:58;;;;;;;9.07;5.47;;;29.10;44.00;;;;;;7389896;19;20011;-78
2023/06/14 11:35:30;;;;;;;8.48;5.40;;;29.20;43.80;;;;;;7410701;19;20014;-76
2023/06/14 11:38:01;;;;;;;10.95;6.07;;;29.20;43.80;;;;;;7391325;19;20007;-78
2023/06/14 11:40:30;;;;;;;15.30;5.85;;;29.30;43.90;;;;;;7386552;19;20003;-76
2023/06/14 11:43:04;;;;;;;8.45;5.85;;;29.30;44.00;;;;;;7386536;19;20011;-75
2023/06/14 11:45:36;;;;;;;11.02;5.53;;;29.40;43.60;;;;;;7384554;19;20007;-75
2023/06/14 11:48:05;;;;;;;54.63;36.42;;;29.40;43.20;;;;;;7384061;19;20007;-77
2023/06/14 11:50:41;;;;;;;30.40;21.50;;;29.40;43.50;;;;;;7408776;19;20010;-78
2023/06/14 11:53:10;;;;;;;9.13;6.22;;;29.40;43.40;;;;;;7389900;19;20051;-77
2023/06/14 11:55:40;;;;;;;8.57;6.00;;;29.50;43.40;;;;;;7393738;19;20002;-76
2023/06/14 11:58:09;;;;;;;7.20;5.40;;;29.50;43.00;;;;;;7385909;19;20134;-75
2023/06/14 12:00:41;;;;;;;10.88;5.30;;;29.50;43.50;;;;;;7389594;19;20007;-79
2023/06/14 12:03:10;;;;;;;9.95;5.93;;;29.60;43.30;;;;;;7388222;19;20379;-75
2023/06/14 12:05:42;;;;;;;10.02;5.13;;;29.60;42.50;;;;;;7406678;19;20015;-76
2023/06/14 12:08:17;;;;;;;10.95;6.00;;;29.70;42.80;;;;;;7404906;19;20010;-75
2023/06/14 12:10:46;;;;;;;11.43;6.20;;;29.70;43.40;;;;;;7384808;19;20016;-74
2023/06/14 12:13:15;;;;;;;12.70;5.95;;;29.60;41.70;;;;;;7385202;19;20009;-73
2023/06/14 12:15:43;;;;;;;11.45;5.68;;;29.60;41.90;;;;;;7384559;19;20016;-73
2023/06/14 12:18:13;;;;;;;9.27;5.65;;;29.60;43.20;;;;;;7385135;19;20006;-74
2023/06/14 12:20:45;;;;;;;9.32;5.53;;;29.70;43.60;;;;;;7393681;19;20019;-74
2023/06/14 12:23:14;;;;;;;13.65;5.70;;;29.80;44.10;;;;;;7409721;19;20010;-74
2023/06/14 12:25:45;;;;;;;14.30;5.93;;;29.80;44.00;;;;;;7384145;19;20398;-74
2023/06/14 12:28:13;;;;;;;7.13;5.73;;;29.90;43.80;;;;;;7383562;19;20429;-75
2023/06/14 12:30:42;;;;;;;10.88;5.70;;;30.00;42.80;;;;;;7385996;19;20231;-76
2023/06/14 12:33:11;;;;;;;10.05;5.75;;;30.00;42.90;;;;;;7383534;19;20225;-77
2023/06/14 12:35:40;;;;;;;14.07;5.95;;;30.10;42.50;;;;;;7395411;19;20032;-76
2023/06/14 12:38:12;;;;;;;8.02;5.45;;;30.10;42.70;;;;;;7402192;19;20002;-76
2023/06/14 12:40:41;;;;;;;9.70;5.75;;;30.10;42.40;;;;;;7384520;19;20003;-75
2023/06/14 12:43:10;;;;;;;10.68;5.90;;;30.20;42.20;;;;;;7386721;19;20003;-75
2023/06/14 12:45:39;;;;;;;13.10;5.50;;;30.20;43.30;;;;;;7387516;19;20003;-75
2023/06/14 12:48:08;;;;;;;7.28;5.90;;;30.20;42.30;;;;;;7384104;19;20051;-76
2023/06/14 12:50:37;;;;;;;8.40;5.15;;;30.30;41.80;;;;;;7405808;19;20026;-76
2023/06/14 12:53:06;;;;;;;9.10;5.30;;;30.30;42.00;;;;;;7383899;19;20003;-76
2023/06/14 12:55:37;;;;;;;7.80;5.00;;;30.40;42.40;;;;;;7384371;19;20015;-76